sensor_id;sensor_type;location;lat;lon;timestamp;P1;durP1;ratioP1;P2;durP2;ratioP2
81591;SDS011;71014;53.394;6.724;2023-08-30T00:02:01;17.27;;;13.07;;
81591;SDS011;71014;53.394;6.724;2023-08-30T00:04:27;17.17;;;12.18;;
81591;SDS011;71014;53.394;6.724;2023-08-30T00:06:53;14.68;;;11.75;;
81591;SDS011;71014;53.394;6.724;2023-08-30T00:09:19;16.65;;;12.98;;
81591;SDS011;71014;53.394;6.724;2023-08-30T00:11:45;13.98;;;11.80;;
81591;SDS011;71014;53.394;6.724;2023-08-30T00:14:11;16.30;;;11.35;;
81591;SDS011;71014;53.394;6.724;2023-08-30T00:16:37;14.93;;;11.50;;
81591;SDS011;71014;53.394;6.724;2023-08-30T00:19:05;15.95;;;11.80;;
81591;SDS011;71014;53.394;6.724;2023-08-30T00:21:31;14.90;;;11.38;;
81591;SDS011;71014;53.394;6.724;2023-08-30T00:23:57;16.85;;;12.40;;
81591;SDS011;71014;53.394;6.724;2023-08-30T00:26:23;15.90;;;11.80;;
81591;SDS011;71014;53.394;6.724;2023-08-30T00:28:49;16.60;;;12.48;;
81591;SDS011;71014;53.394;6.724;2023-08-30T00:31:15;16.20;;;11.82;;
81591;SDS011;71014;53.394;6.724;2023-08-30T00:33:42;16.85;;;12.52;;
81591;SDS011;71014;53.394;6.724;2023-08-30T00:36:08;18.35;;;13.27;;
81591;SDS011;71014;53.394;6.724;2023-08-30T00:38:34;20.27;;;13.82;;
81591;SDS011;71014;53.394;6.724;2023-08-30T00:41:00;17.33;;;13.27;;
81591;SDS011;71014;53.394;6.724;2023-08-30T00:43:26;16.60;;;13.02;;
81591;SDS011;71014;53.394;6.724;2023-08-30T00:45:52;19.25;;;12.88;;
81591;SDS011;71014;53.394;6.724;2023-08-30T00:48:18;16.27;;;12.65;;
81591;SDS011;71014;53.394;6.724;2023-08-30T00:50:45;16.50;;;10.95;;
81591;SDS011;71014;53.394;6.724;2023-08-30T00:53:11;14.55;;;11.23;;
81591;SDS011;71014;53.394;6.724;2023-08-30T00:55:37;19.98;;;13.85;;
81591;SDS011;71014;53.394;6.724;2023-08-30T00:58:03;18.00;;;12.32;;
81591;SDS011;71014;53.394;6.724;2023-08-30T01:00:30;17.60;;;12.95;;
81591;SDS011;71014;53.394;6.724;2023-08-30T01:02:56;17.70;;;13.57;;
81591;SDS011;71014;53.394;6.724;2023-08-30T01:05:23;19.02;;;14.02;;
81591;SDS011;71014;53.394;6.724;2023-08-30T01:07:49;15.25;;;12.65;;
81591;SDS011;71014;53.394;6.724;2023-08-30T01:10:16;15.40;;;12.18;;
81591;SDS011;71014;53.394;6.724;2023-08-30T01:12:48;16.65;;;12.38;;
81591;SDS011;71014;53.394;6.724;2023-08-30T01:15:16;17.17;;;12.23;;
81591;SDS011;71014;53.394;6.724;2023-08-30T01:17:44;15.95;;;12.02;;
81591;SDS011;71014;53.394;6.724;2023-08-30T01:20:10;14.55;;;11.13;;
81591;SDS011;71014;53.394;6.724;2023-08-30T01:22:47;16.50;;;12.60;;
81591;SDS011;71014;53.394;6.724;2023-08-30T01:25:17;15.90;;;12.35;;
81591;SDS011;71014;53.394;6.724;2023-08-30T01:27:47;19.38;;;13.93;;
81591;SDS011;71014;53.394;6.724;2023-08-30T01:30:14;17.92;;;14.00;;
81591;SDS011;71014;53.394;6.724;2023-08-30T01:32:40;16.90;;;12.68;;
81591;SDS011;71014;53.394;6.724;2023-08-30T01:35:07;17.63;;;12.30;;
81591;SDS011;71014;53.394;6.724;2023-08-30T01:37:33;16.08;;;12.63;;
81591;SDS011;71014;53.394;6.724;2023-08-30T01:39:59;18.13;;;12.57;;
81591;SDS011;71014;53.394;6.724;2023-08-30T01:42:29;21.90;;;13.75;;
81591;SDS011;71014;53.394;6.724;2023-08-30T01:44:56;18.77;;;14.35;;
81591;SDS011;71014;53.394;6.724;2023-08-30T01:47:25;19.48;;;13.68;;
81591;SDS011;71014;53.394;6.724;2023-08-30T01:49:53;21.50;;;15.48;;
81591;SDS011;71014;53.394;6.724;2023-08-30T01:52:19;22.20;;;15.75;;
81591;SDS011;71014;53.394;6.724;2023-08-30T01:54:46;19.30;;;14.38;;
81591;SDS011;71014;53.394;6.724;2023-08-30T01:57:12;20.42;;;15.05;;
81591;SDS011;71014;53.394;6.724;2023-08-30T01:59:38;19.75;;;14.48;;
81591;SDS011;71014;53.394;6.724;2023-08-30T02:02:04;19.02;;;14.30;;
81591;SDS011;71014;53.394;6.724;2023-08-30T02:04:30;17.27;;;13.48;;
81591;SDS011;71014;53.394;6.724;2023-08-30T02:07:02;16.52;;;12.60;;
81591;SDS011;71014;53.394;6.724;2023-08-30T02:11:57;21.67;;;13.55;;
81591;SDS011;71014;53.394;6.724;2023-08-30T02:14:26;15.13;;;11.00;;
81591;SDS011;71014;53.394;6.724;2023-08-30T02:16:52;18.25;;;13.02;;
81591;SDS011;71014;53.394;6.724;2023-08-30T02:19:21;19.33;;;13.13;;
81591;SDS011;71014;53.394;6.724;2023-08-30T02:21:47;15.45;;;11.93;;
81591;SDS011;71014;53.394;6.724;2023-08-30T02:24:13;18.70;;;13.90;;
81591;SDS011;71014;53.394;6.724;2023-08-30T02:26:39;22.05;;;13.93;;
81591;SDS011;71014;53.394;6.724;2023-08-30T02:29:06;16.42;;;12.60;;
81591;SDS011;71014;53.394;6.724;2023-08-30T02:31:33;17.75;;;13.73;;
81591;SDS011;71014;53.394;6.724;2023-08-30T02:33:59;20.83;;;12.85;;
81591;SDS011;71014;53.394;6.724;2023-08-30T02:36:25;17.60;;;12.77;;
81591;SDS011;71014;53.394;6.724;2023-08-30T02:38:51;21.65;;;13.55;;
81591;SDS011;71014;53.394;6.724;2023-08-30T02:41:17;16.00;;;12.00;;
81591;SDS011;71014;53.394;6.724;2023-08-30T02:43:43;14.88;;;11.27;;
81591;SDS011;71014;53.394;6.724;2023-08-30T02:46:09;20.85;;;13.00;;
81591;SDS011;71014;53.394;6.724;2023-08-30T02:48:35;17.00;;;11.85;;
81591;SDS011;71014;53.394;6.724;2023-08-30T02:51:01;18.05;;;12.48;;
81591;SDS011;71014;53.394;6.724;2023-08-30T02:53:27;16.33;;;11.40;;
81591;SDS011;71014;53.394;6.724;2023-08-30T02:55:53;16.50;;;10.85;;
81591;SDS011;71014;53.394;6.724;2023-08-30T02:58:20;15.82;;;10.73;;
81591;SDS011;71014;53.394;6.724;2023-08-30T03:00:46;17.70;;;11.95;;
81591;SDS011;71014;53.394;6.724;2023-08-30T03:03:12;13.57;;;10.45;;
81591;SDS011;71014;53.394;6.724;2023-08-30T03:05:38;14.10;;;11.00;;
81591;SDS011;71014;53.394;6.724;2023-08-30T03:08:05;13.45;;;10.13;;
81591;SDS011;71014;53.394;6.724;2023-08-30T03:10:31;15.55;;;11.05;;
81591;SDS011;71014;53.394;6.724;2023-08-30T03:12:57;15.43;;;9.98;;
81591;SDS011;71014;53.394;6.724;2023-08-30T03:15:23;13.90;;;10.13;;
81591;SDS011;71014;53.394;6.724;2023-08-30T03:17:49;14.65;;;11.32;;
81591;SDS011;71014;53.394;6.724;2023-08-30T03:20:15;17.85;;;10.93;;
81591;SDS011;71014;53.394;6.724;2023-08-30T03:22:41;16.30;;;9.70;;
81591;SDS011;71014;53.394;6.724;2023-08-30T03:25:07;13.77;;;9.85;;
81591;SDS011;71014;53.394;6.724;2023-08-30T03:27:34;17.00;;;10.50;;
81591;SDS011;71014;53.394;6.724;2023-08-30T03:30:01;17.67;;;11.73;;
81591;SDS011;71014;53.394;6.724;2023-08-30T03:32:27;16.88;;;11.38;;
81591;SDS011;71014;53.394;6.724;2023-08-30T03:34:53;14.57;;;9.90;;
81591;SDS011;71014;53.394;6.724;2023-08-30T03:37:19;15.10;;;10.20;;
81591;SDS011;71014;53.394;6.724;2023-08-30T03:39:45;14.18;;;10.27;;
81591;SDS011;71014;53.394;6.724;2023-08-30T03:42:11;16.02;;;10.52;;
81591;SDS011;71014;53.394;6.724;2023-08-30T03:44:37;14.18;;;9.68;;
81591;SDS011;71014;53.394;6.724;2023-08-30T03:47:04;13.95;;;9.70;;
81591;SDS011;71014;53.394;6.724;2023-08-30T03:49:30;13.60;;;9.05;;
81591;SDS011;71014;53.394;6.724;2023-08-30T03:51:56;13.10;;;10.10;;
81591;SDS011;71014;53.394;6.724;2023-08-30T03:54:22;17.05;;;10.13;;
81591;SDS011;71014;53.394;6.724;2023-08-30T03:56:48;17.55;;;10.25;;
81591;SDS011;71014;53.394;6.724;2023-08-30T03:59:14;16.17;;;11.00;;
81591;SDS011;71014;53.394;6.724;2023-08-30T04:01:40;16.55;;;11.38;;
81591;SDS011;71014;53.394;6.724;2023-08-30T04:04:06;15.10;;;10.40;;
81591;SDS011;71014;53.394;6.724;2023-08-30T04:06:32;13.95;;;9.63;;
81591;SDS011;71014;53.394;6.724;2023-08-30T04:08:58;14.27;;;9.57;;
81591;SDS011;71014;53.394;6.724;2023-08-30T04:11:24;14.05;;;10.68;;
81591;SDS011;71014;53.394;6.724;2023-08-30T04:13:50;15.73;;;10.18;;
81591;SDS011;71014;53.394;6.724;2023-08-30T04:16:17;14.80;;;10.85;;
81591;SDS011;71014;53.394;6.724;2023-08-30T04:18:43;15.30;;;10.07;;
81591;SDS011;71014;53.394;6.724;2023-08-30T04:21:09;16.30;;;9.90;;
81591;SDS011;71014;53.394;6.724;2023-08-30T04:23:35;16.52;;;10.23;;
81591;SDS011;71014;53.394;6.724;2023-08-30T04:26:02;18.55;;;11.63;;
81591;SDS011;71014;53.394;6.724;2023-08-30T04:28:28;16.33;;;10.15;;
81591;SDS011;71014;53.394;6.724;2023-08-30T04:30:55;17.00;;;11.23;;
81591;SDS011;71014;53.394;6.724;2023-08-30T04:33:21;16.50;;;11.30;;
81591;SDS011;71014;53.394;6.724;2023-08-30T04:35:54;15.57;;;10.35;;
81591;SDS011;71014;53.394;6.724;2023-08-30T04:38:20;17.80;;;10.85;;
81591;SDS011;71014;53.394;6.724;2023-08-30T04:40:46;16.67;;;10.35;;
81591;SDS011;71014;53.394;6.724;2023-08-30T04:43:12;15.05;;;10.13;;
81591;SDS011;71014;53.394;6.724;2023-08-30T04:45:38;15.60;;;10.57;;
81591;SDS011;71014;53.394;6.724;2023-08-30T04:48:05;16.70;;;10.82;;
81591;SDS011;71014;53.394;6.724;2023-08-30T04:50:31;17.35;;;10.32;;
81591;SDS011;71014;53.394;6.724;2023-08-30T04:52:57;15.05;;;9.48;;
81591;SDS011;71014;53.394;6.724;2023-08-30T04:55:24;17.92;;;10.10;;
81591;SDS011;71014;53.394;6.724;2023-08-30T05:00:16;16.13;;;10.27;;
81591;SDS011;71014;53.394;6.724;2023-08-30T05:02:42;14.88;;;10.65;;
81591;SDS011;71014;53.394;6.724;2023-08-30T05:05:11;15.52;;;10.63;;
81591;SDS011;71014;53.394;6.724;2023-08-30T05:07:37;16.73;;;10.93;;
81591;SDS011;71014;53.394;6.724;2023-08-30T05:10:04;17.30;;;10.77;;
81591;SDS011;71014;53.394;6.724;2023-08-30T05:12:30;16.00;;;10.60;;
81591;SDS011;71014;53.394;6.724;2023-08-30T05:14:56;16.45;;;11.48;;
81591;SDS011;71014;53.394;6.724;2023-08-30T05:17:22;14.82;;;9.40;;
81591;SDS011;71014;53.394;6.724;2023-08-30T05:19:48;14.30;;;10.40;;
81591;SDS011;71014;53.394;6.724;2023-08-30T05:22:14;20.25;;;11.60;;
81591;SDS011;71014;53.394;6.724;2023-08-30T05:24:40;15.32;;;9.73;;
81591;SDS011;71014;53.394;6.724;2023-08-30T05:27:06;15.55;;;9.85;;
81591;SDS011;71014;53.394;6.724;2023-08-30T05:29:32;14.57;;;10.00;;
81591;SDS011;71014;53.394;6.724;2023-08-30T05:31:58;17.55;;;10.77;;
81591;SDS011;71014;53.394;6.724;2023-08-30T05:34:24;16.75;;;10.73;;
81591;SDS011;71014;53.394;6.724;2023-08-30T05:36:52;17.08;;;10.93;;
81591;SDS011;71014;53.394;6.724;2023-08-30T05:39:18;16.95;;;10.77;;
81591;SDS011;71014;53.394;6.724;2023-08-30T05:41:44;15.40;;;10.52;;
81591;SDS011;71014;53.394;6.724;2023-08-30T05:44:10;14.40;;;10.50;;
81591;SDS011;71014;53.394;6.724;2023-08-30T05:46:36;16.27;;;11.25;;
81591;SDS011;71014;53.394;6.724;2023-08-30T05:49:02;14.90;;;9.90;;
81591;SDS011;71014;53.394;6.724;2023-08-30T05:51:28;15.88;;;10.10;;
81591;SDS011;71014;53.394;6.724;2023-08-30T05:53:54;14.30;;;9.40;;
81591;SDS011;71014;53.394;6.724;2023-08-30T05:56:20;13.98;;;9.10;;
81591;SDS011;71014;53.394;6.724;2023-08-30T05:58:46;16.75;;;10.82;;
81591;SDS011;71014;53.394;6.724;2023-08-30T06:01:13;13.85;;;9.45;;
81591;SDS011;71014;53.394;6.724;2023-08-30T06:03:39;13.65;;;9.13;;
81591;SDS011;71014;53.394;6.724;2023-08-30T06:06:05;12.80;;;9.38;;
81591;SDS011;71014;53.394;6.724;2023-08-30T06:08:31;11.35;;;8.18;;
81591;SDS011;71014;53.394;6.724;2023-08-30T06:10:57;14.18;;;9.73;;
81591;SDS011;71014;53.394;6.724;2023-08-30T06:13:23;13.98;;;8.65;;
81591;SDS011;71014;53.394;6.724;2023-08-30T06:15:50;13.65;;;9.18;;
81591;SDS011;71014;53.394;6.724;2023-08-30T06:18:16;14.30;;;9.15;;
81591;SDS011;71014;53.394;6.724;2023-08-30T06:20:42;14.55;;;10.35;;
81591;SDS011;71014;53.394;6.724;2023-08-30T06:23:08;14.27;;;9.02;;
81591;SDS011;71014;53.394;6.724;2023-08-30T06:25:35;15.40;;;9.57;;
81591;SDS011;71014;53.394;6.724;2023-08-30T06:28:01;14.38;;;10.00;;
81591;SDS011;71014;53.394;6.724;2023-08-30T06:30:28;12.85;;;9.82;;
81591;SDS011;71014;53.394;6.724;2023-08-30T06:32:54;14.85;;;10.18;;
81591;SDS011;71014;53.394;6.724;2023-08-30T06:35:22;12.98;;;9.07;;
81591;SDS011;71014;53.394;6.724;2023-08-30T06:37:48;13.00;;;9.38;;
81591;SDS011;71014;53.394;6.724;2023-08-30T06:40:14;13.80;;;9.02;;
81591;SDS011;71014;53.394;6.724;2023-08-30T06:42:40;12.55;;;8.82;;
81591;SDS011;71014;53.394;6.724;2023-08-30T06:45:06;13.77;;;8.70;;
81591;SDS011;71014;53.394;6.724;2023-08-30T06:47:32;12.68;;;9.15;;
81591;SDS011;71014;53.394;6.724;2023-08-30T06:49:59;13.25;;;8.90;;
81591;SDS011;71014;53.394;6.724;2023-08-30T06:52:25;11.80;;;8.00;;
81591;SDS011;71014;53.394;6.724;2023-08-30T06:54:51;14.27;;;8.38;;
81591;SDS011;71014;53.394;6.724;2023-08-30T06:57:17;12.23;;;8.27;;
81591;SDS011;71014;53.394;6.724;2023-08-30T06:59:43;11.07;;;7.57;;
81591;SDS011;71014;53.394;6.724;2023-08-30T07:02:09;13.00;;;8.45;;
81591;SDS011;71014;53.394;6.724;2023-08-30T07:04:35;12.75;;;8.52;;
81591;SDS011;71014;53.394;6.724;2023-08-30T07:07:01;13.07;;;8.93;;
81591;SDS011;71014;53.394;6.724;2023-08-30T07:09:27;11.88;;;7.90;;
81591;SDS011;71014;53.394;6.724;2023-08-30T07:11:57;13.18;;;7.93;;
81591;SDS011;71014;53.394;6.724;2023-08-30T07:14:23;11.70;;;7.93;;
81591;SDS011;71014;53.394;6.724;2023-08-30T07:16:49;12.45;;;8.43;;
81591;SDS011;71014;53.394;6.724;2023-08-30T07:19:15;12.95;;;7.60;;
81591;SDS011;71014;53.394;6.724;2023-08-30T07:21:44;12.80;;;7.90;;
81591;SDS011;71014;53.394;6.724;2023-08-30T07:24:10;11.93;;;7.78;;
81591;SDS011;71014;53.394;6.724;2023-08-30T07:26:37;10.18;;;7.18;;
81591;SDS011;71014;53.394;6.724;2023-08-30T07:29:03;12.25;;;7.20;;
81591;SDS011;71014;53.394;6.724;2023-08-30T07:31:33;15.70;;;8.35;;
81591;SDS011;71014;53.394;6.724;2023-08-30T07:33:59;12.77;;;6.30;;
81591;SDS011;71014;53.394;6.724;2023-08-30T07:36:25;9.20;;;6.35;;
81591;SDS011;71014;53.394;6.724;2023-08-30T07:41:17;11.18;;;7.32;;
81591;SDS011;71014;53.394;6.724;2023-08-30T07:43:43;13.57;;;7.95;;
81591;SDS011;71014;53.394;6.724;2023-08-30T07:46:09;10.52;;;7.95;;
81591;SDS011;71014;53.394;6.724;2023-08-30T07:48:35;10.55;;;7.03;;
81591;SDS011;71014;53.394;6.724;2023-08-30T07:51:01;10.32;;;6.85;;
81591;SDS011;71014;53.394;6.724;2023-08-30T07:53:27;9.63;;;6.78;;
81591;SDS011;71014;53.394;6.724;2023-08-30T07:55:53;13.02;;;7.50;;
81591;SDS011;71014;53.394;6.724;2023-08-30T07:58:19;10.23;;;6.40;;
81591;SDS011;71014;53.394;6.724;2023-08-30T08:00:45;9.63;;;6.85;;
81591;SDS011;71014;53.394;6.724;2023-08-30T08:03:11;7.78;;;6.15;;
81591;SDS011;71014;53.394;6.724;2023-08-30T08:05:37;8.70;;;5.97;;
81591;SDS011;71014;53.394;6.724;2023-08-30T08:08:03;9.40;;;5.50;;
81591;SDS011;71014;53.394;6.724;2023-08-30T08:10:33;8.68;;;5.43;;
81591;SDS011;71014;53.394;6.724;2023-08-30T08:12:59;8.30;;;5.80;;
81591;SDS011;71014;53.394;6.724;2023-08-30T08:15:26;11.13;;;6.18;;
81591;SDS011;71014;53.394;6.724;2023-08-30T08:17:52;9.05;;;5.88;;
81591;SDS011;71014;53.394;6.724;2023-08-30T08:20:18;6.35;;;4.45;;
81591;SDS011;71014;53.394;6.724;2023-08-30T08:22:44;6.88;;;4.05;;
81591;SDS011;71014;53.394;6.724;2023-08-30T08:25:10;7.63;;;5.03;;
81591;SDS011;71014;53.394;6.724;2023-08-30T08:27:36;9.27;;;5.35;;
81591;SDS011;71014;53.394;6.724;2023-08-30T08:30:03;8.98;;;5.00;;
81591;SDS011;71014;53.394;6.724;2023-08-30T08:32:30;7.50;;;5.15;;
81591;SDS011;71014;53.394;6.724;2023-08-30T08:34:56;7.68;;;4.70;;
81591;SDS011;71014;53.394;6.724;2023-08-30T08:37:23;8.55;;;5.22;;
81591;SDS011;71014;53.394;6.724;2023-08-30T08:39:49;6.82;;;4.43;;
81591;SDS011;71014;53.394;6.724;2023-08-30T08:42:19;8.55;;;5.45;;
81591;SDS011;71014;53.394;6.724;2023-08-30T08:44:50;6.78;;;4.35;;
81591;SDS011;71014;53.394;6.724;2023-08-30T08:47:18;7.38;;;4.95;;
81591;SDS011;71014;53.394;6.724;2023-08-30T08:49:44;8.65;;;5.68;;
81591;SDS011;71014;53.394;6.724;2023-08-30T08:52:11;9.63;;;5.63;;
81591;SDS011;71014;53.394;6.724;2023-08-30T08:54:40;9.90;;;5.15;;
81591;SDS011;71014;53.394;6.724;2023-08-30T08:57:07;8.43;;;5.15;;
81591;SDS011;71014;53.394;6.724;2023-08-30T08:59:33;8.85;;;6.25;;
81591;SDS011;71014;53.394;6.724;2023-08-30T09:02:01;9.10;;;5.22;;
81591;SDS011;71014;53.394;6.724;2023-08-30T09:04:28;9.55;;;5.40;;
81591;SDS011;71014;53.394;6.724;2023-08-30T09:06:56;9.90;;;5.07;;
81591;SDS011;71014;53.394;6.724;2023-08-30T09:09:22;8.38;;;5.10;;
81591;SDS011;71014;53.394;6.724;2023-08-30T09:11:49;7.68;;;4.78;;
81591;SDS011;71014;53.394;6.724;2023-08-30T09:14:15;8.57;;;5.10;;
81591;SDS011;71014;53.394;6.724;2023-08-30T09:19:07;7.75;;;5.20;;
81591;SDS011;71014;53.394;6.724;2023-08-30T09:21:35;8.80;;;4.65;;
81591;SDS011;71014;53.394;6.724;2023-08-30T09:24:05;7.90;;;4.78;;
81591;SDS011;71014;53.394;6.724;2023-08-30T09:26:31;6.63;;;4.68;;
81591;SDS011;71014;53.394;6.724;2023-08-30T09:29:02;10.00;;;5.07;;
81591;SDS011;71014;53.394;6.724;2023-08-30T09:31:34;6.93;;;5.07;;
81591;SDS011;71014;53.394;6.724;2023-08-30T09:34:01;8.43;;;5.03;;
81591;SDS011;71014;53.394;6.724;2023-08-30T09:38:53;8.15;;;4.30;;
81591;SDS011;71014;53.394;6.724;2023-08-30T09:41:23;9.30;;;5.53;;
81591;SDS011;71014;53.394;6.724;2023-08-30T09:43:50;8.27;;;4.75;;
81591;SDS011;71014;53.394;6.724;2023-08-30T09:46:16;9.35;;;5.35;;
81591;SDS011;71014;53.394;6.724;2023-08-30T09:48:42;7.85;;;5.93;;
81591;SDS011;71014;53.394;6.724;2023-08-30T09:51:08;7.47;;;5.25;;
81591;SDS011;71014;53.394;6.724;2023-08-30T09:56:01;8.63;;;4.85;;
81591;SDS011;71014;53.394;6.724;2023-08-30T10:03:20;10.40;;;5.57;;
81591;SDS011;71014;53.394;6.724;2023-08-30T10:05:47;8.95;;;5.47;;
81591;SDS011;71014;53.394;6.724;2023-08-30T10:08:13;10.75;;;5.35;;
81591;SDS011;71014;53.394;6.724;2023-08-30T10:10:39;9.48;;;5.97;;
81591;SDS011;71014;53.394;6.724;2023-08-30T10:13:06;9.43;;;6.00;;
81591;SDS011;71014;53.394;6.724;2023-08-30T10:15:33;8.30;;;6.57;;
81591;SDS011;71014;53.394;6.724;2023-08-30T10:17:59;11.85;;;6.05;;
81591;SDS011;71014;53.394;6.724;2023-08-30T10:20:28;9.85;;;5.60;;
81591;SDS011;71014;53.394;6.724;2023-08-30T10:22:54;8.98;;;5.40;;
81591;SDS011;71014;53.394;6.724;2023-08-30T10:25:21;10.13;;;5.95;;
81591;SDS011;71014;53.394;6.724;2023-08-30T10:27:48;7.18;;;5.13;;
81591;SDS011;71014;53.394;6.724;2023-08-30T10:30:15;8.98;;;5.30;;
81591;SDS011;71014;53.394;6.724;2023-08-30T10:32:43;7.25;;;4.90;;
81591;SDS011;71014;53.394;6.724;2023-08-30T10:35:13;7.75;;;4.90;;
81591;SDS011;71014;53.394;6.724;2023-08-30T10:37:39;6.43;;;4.60;;
81591;SDS011;71014;53.394;6.724;2023-08-30T10:40:05;9.25;;;5.03;;
81591;SDS011;71014;53.394;6.724;2023-08-30T10:42:32;7.40;;;4.30;;
81591;SDS011;71014;53.394;6.724;2023-08-30T10:47:25;5.40;;;3.78;;
81591;SDS011;71014;53.394;6.724;2023-08-30T10:49:53;5.00;;;3.75;;
81591;SDS011;71014;53.394;6.724;2023-08-30T10:52:22;6.43;;;4.70;;
81591;SDS011;71014;53.394;6.724;2023-08-30T10:54:48;6.43;;;4.18;;
81591;SDS011;71014;53.394;6.724;2023-08-30T10:57:17;4.97;;;3.90;;
81591;SDS011;71014;53.394;6.724;2023-08-30T11:02:29;6.68;;;3.47;;
81591;SDS011;71014;53.394;6.724;2023-08-30T11:04:56;6.47;;;4.03;;
81591;SDS011;71014;53.394;6.724;2023-08-30T11:07:24;6.25;;;3.70;;
81591;SDS011;71014;53.394;6.724;2023-08-30T11:09:51;4.70;;;2.80;;
81591;SDS011;71014;53.394;6.724;2023-08-30T11:12:18;5.63;;;3.88;;
81591;SDS011;71014;53.394;6.724;2023-08-30T11:14:47;5.65;;;3.75;;
81591;SDS011;71014;53.394;6.724;2023-08-30T11:17:13;5.80;;;3.83;;
81591;SDS011;71014;53.394;6.724;2023-08-30T11:19:42;6.13;;;4.55;;
81591;SDS011;71014;53.394;6.724;2023-08-30T11:22:08;8.43;;;4.55;;
81591;SDS011;71014;53.394;6.724;2023-08-30T11:24:34;7.68;;;4.82;;
81591;SDS011;71014;53.394;6.724;2023-08-30T11:27:00;7.82;;;4.45;;
81591;SDS011;71014;53.394;6.724;2023-08-30T11:29:26;5.82;;;4.93;;
81591;SDS011;71014;53.394;6.724;2023-08-30T11:31:52;11.50;;;5.32;;
81591;SDS011;71014;53.394;6.724;2023-08-30T11:34:21;6.53;;;5.00;;
81591;SDS011;71014;53.394;6.724;2023-08-30T11:36:48;11.52;;;6.05;;
81591;SDS011;71014;53.394;6.724;2023-08-30T11:39:18;9.82;;;6.72;;
81591;SDS011;71014;53.394;6.724;2023-08-30T11:41:44;9.45;;;6.13;;
81591;SDS011;71014;53.394;6.724;2023-08-30T11:44:10;10.30;;;6.38;;
81591;SDS011;71014;53.394;6.724;2023-08-30T11:49:02;8.70;;;5.70;;
81591;SDS011;71014;53.394;6.724;2023-08-30T11:51:29;6.65;;;5.13;;
81591;SDS011;71014;53.394;6.724;2023-08-30T11:53:55;6.00;;;5.32;;
81591;SDS011;71014;53.394;6.724;2023-08-30T11:56:22;6.93;;;5.20;;
81591;SDS011;71014;53.394;6.724;2023-08-30T12:01:14;7.38;;;5.13;;
81591;SDS011;71014;53.394;6.724;2023-08-30T12:06:10;7.28;;;5.00;;
81591;SDS011;71014;53.394;6.724;2023-08-30T12:08:37;8.27;;;5.10;;
81591;SDS011;71014;53.394;6.724;2023-08-30T12:11:03;8.02;;;6.25;;
81591;SDS011;71014;53.394;6.724;2023-08-30T12:13:30;8.13;;;5.60;;
81591;SDS011;71014;53.394;6.724;2023-08-30T12:15:56;7.43;;;5.40;;
81591;SDS011;71014;53.394;6.724;2023-08-30T12:18:23;7.85;;;5.60;;
81591;SDS011;71014;53.394;6.724;2023-08-30T12:23:19;6.05;;;4.60;;
81591;SDS011;71014;53.394;6.724;2023-08-30T12:25:56;4.70;;;3.70;;
81591;SDS011;71014;53.394;6.724;2023-08-30T12:28:22;5.72;;;4.22;;
81591;SDS011;71014;53.394;6.724;2023-08-30T12:30:48;8.38;;;4.30;;
81591;SDS011;71014;53.394;6.724;2023-08-30T12:33:16;6.45;;;4.50;;
81591;SDS011;71014;53.394;6.724;2023-08-30T12:35:42;6.20;;;4.32;;
81591;SDS011;71014;53.394;6.724;2023-08-30T12:38:08;6.90;;;4.63;;
81591;SDS011;71014;53.394;6.724;2023-08-30T12:40:36;5.63;;;4.43;;
81591;SDS011;71014;53.394;6.724;2023-08-30T12:43:02;5.93;;;4.10;;
81591;SDS011;71014;53.394;6.724;2023-08-30T12:45:29;4.88;;;4.35;;
81591;SDS011;71014;53.394;6.724;2023-08-30T12:47:55;5.22;;;4.38;;
81591;SDS011;71014;53.394;6.724;2023-08-30T12:50:23;4.60;;;3.67;;
81591;SDS011;71014;53.394;6.724;2023-08-30T12:52:49;5.45;;;3.85;;
81591;SDS011;71014;53.394;6.724;2023-08-30T12:55:15;5.20;;;3.63;;
81591;SDS011;71014;53.394;6.724;2023-08-30T12:57:44;3.30;;;3.00;;
81591;SDS011;71014;53.394;6.724;2023-08-30T13:00:13;5.78;;;3.78;;
81591;SDS011;71014;53.394;6.724;2023-08-30T13:02:39;4.45;;;3.88;;
81591;SDS011;71014;53.394;6.724;2023-08-30T13:05:05;7.43;;;4.90;;
81591;SDS011;71014;53.394;6.724;2023-08-30T13:07:31;7.93;;;4.82;;
81591;SDS011;71014;53.394;6.724;2023-08-30T13:09:57;9.75;;;5.75;;
81591;SDS011;71014;53.394;6.724;2023-08-30T13:12:24;6.18;;;4.65;;
81591;SDS011;71014;53.394;6.724;2023-08-30T13:14:50;6.45;;;4.82;;
81591;SDS011;71014;53.394;6.724;2023-08-30T13:17:16;8.18;;;5.28;;
81591;SDS011;71014;53.394;6.724;2023-08-30T13:22:08;8.95;;;5.88;;
81591;SDS011;71014;53.394;6.724;2023-08-30T13:24:35;8.60;;;6.80;;
81591;SDS011;71014;53.394;6.724;2023-08-30T13:27:01;9.82;;;7.30;;
81591;SDS011;71014;53.394;6.724;2023-08-30T13:29:27;9.10;;;7.03;;
81591;SDS011;71014;53.394;6.724;2023-08-30T13:31:53;10.80;;;8.38;;
81591;SDS011;71014;53.394;6.724;2023-08-30T13:34:19;12.25;;;8.80;;
81591;SDS011;71014;53.394;6.724;2023-08-30T13:36:45;10.75;;;8.02;;
81591;SDS011;71014;53.394;6.724;2023-08-30T13:39:11;11.32;;;8.75;;
81591;SDS011;71014;53.394;6.724;2023-08-30T13:41:37;10.40;;;7.70;;
81591;SDS011;71014;53.394;6.724;2023-08-30T13:44:03;10.80;;;8.27;;
81591;SDS011;71014;53.394;6.724;2023-08-30T13:46:30;12.98;;;8.23;;
81591;SDS011;71014;53.394;6.724;2023-08-30T13:48:56;10.27;;;7.97;;
81591;SDS011;71014;53.394;6.724;2023-08-30T13:51:22;12.70;;;8.15;;
81591;SDS011;71014;53.394;6.724;2023-08-30T13:53:49;11.05;;;8.38;;
81591;SDS011;71014;53.394;6.724;2023-08-30T13:56:15;8.93;;;6.35;;
81591;SDS011;71014;53.394;6.724;2023-08-30T13:58:41;9.25;;;6.78;;
81591;SDS011;71014;53.394;6.724;2023-08-30T14:01:08;8.38;;;5.68;;
81591;SDS011;71014;53.394;6.724;2023-08-30T14:03:34;7.18;;;5.15;;
81591;SDS011;71014;53.394;6.724;2023-08-30T14:06:00;8.15;;;5.65;;
81591;SDS011;71014;53.394;6.724;2023-08-30T14:08:26;7.32;;;5.57;;
81591;SDS011;71014;53.394;6.724;2023-08-30T14:10:52;5.43;;;4.53;;
81591;SDS011;71014;53.394;6.724;2023-08-30T14:13:18;7.82;;;5.53;;
81591;SDS011;71014;53.394;6.724;2023-08-30T14:15:44;6.85;;;5.15;;
81591;SDS011;71014;53.394;6.724;2023-08-30T14:18:11;6.55;;;4.88;;
81591;SDS011;71014;53.394;6.724;2023-08-30T14:20:37;6.18;;;5.03;;
81591;SDS011;71014;53.394;6.724;2023-08-30T14:23:03;9.18;;;5.05;;
81591;SDS011;71014;53.394;6.724;2023-08-30T14:25:29;8.60;;;5.55;;
81591;SDS011;71014;53.394;6.724;2023-08-30T14:27:55;10.90;;;7.15;;
81591;SDS011;71014;53.394;6.724;2023-08-30T14:30:21;7.53;;;6.03;;
81591;SDS011;71014;53.394;6.724;2023-08-30T14:32:47;8.73;;;5.95;;
81591;SDS011;71014;53.394;6.724;2023-08-30T14:35:13;9.85;;;6.75;;
81591;SDS011;71014;53.394;6.724;2023-08-30T14:37:39;8.45;;;6.50;;
81591;SDS011;71014;53.394;6.724;2023-08-30T14:40:06;10.05;;;5.72;;
81591;SDS011;71014;53.394;6.724;2023-08-30T14:42:32;7.03;;;5.15;;
81591;SDS011;71014;53.394;6.724;2023-08-30T14:44:58;7.00;;;5.70;;
81591;SDS011;71014;53.394;6.724;2023-08-30T14:47:24;7.57;;;5.28;;
81591;SDS011;71014;53.394;6.724;2023-08-30T14:49:50;5.90;;;5.18;;
81591;SDS011;71014;53.394;6.724;2023-08-30T14:52:16;7.32;;;5.97;;
81591;SDS011;71014;53.394;6.724;2023-08-30T14:54:42;8.15;;;6.05;;
81591;SDS011;71014;53.394;6.724;2023-08-30T14:57:08;7.20;;;5.68;;
81591;SDS011;71014;53.394;6.724;2023-08-30T14:59:35;7.13;;;5.38;;
81591;SDS011;71014;53.394;6.724;2023-08-30T15:02:01;7.05;;;5.13;;
81591;SDS011;71014;53.394;6.724;2023-08-30T15:04:27;7.30;;;4.97;;
81591;SDS011;71014;53.394;6.724;2023-08-30T15:06:53;6.07;;;5.00;;
81591;SDS011;71014;53.394;6.724;2023-08-30T15:09:19;6.78;;;4.57;;